sensor_id;sensor_type;location;lat;lon;timestamp;temperature;humidity
78028;DHT22;67235;45.638;11.714;2023-03-31T00:01:36;13.40;71.10
78028;DHT22;67235;45.638;11.714;2023-03-31T00:04:07;13.30;70.90
78028;DHT22;67235;45.638;11.714;2023-03-31T00:06:36;13.30;70.90
78028;DHT22;67235;45.638;11.714;2023-03-31T00:09:12;13.20;70.80
78028;DHT22;67235;45.638;11.714;2023-03-31T00:11:39;13.30;70.60
78028;DHT22;67235;45.638;11.714;2023-03-31T00:14:06;13.30;70.70
78028;DHT22;67235;45.638;11.714;2023-03-31T00:16:33;13.30;70.80
78028;DHT22;67235;45.638;11.714;2023-03-31T00:18:59;13.30;71.10
78028;DHT22;67235;45.638;11.714;2023-03-31T00:21:27;13.30;70.90
78028;DHT22;67235;45.638;11.714;2023-03-31T00:24:03;13.40;70.90
78028;DHT22;67235;45.638;11.714;2023-03-31T00:26:31;13.40;70.60
78028;DHT22;67235;45.638;11.714;2023-03-31T00:28:59;13.40;70.80
78028;DHT22;67235;45.638;11.714;2023-03-31T00:31:26;13.40;70.80
78028;DHT22;67235;45.638;11.714;2023-03-31T00:33:53;13.50;70.80
78028;DHT22;67235;45.638;11.714;2023-03-31T00:36:19;13.50;70.90
78028;DHT22;67235;45.638;11.714;2023-03-31T00:38:56;13.40;71.00
78028;DHT22;67235;45.638;11.714;2023-03-31T00:41:25;13.40;70.80
78028;DHT22;67235;45.638;11.714;2023-03-31T00:44:06;13.40;70.80
78028;DHT22;67235;45.638;11.714;2023-03-31T00:46:45;13.40;70.90
78028;DHT22;67235;45.638;11.714;2023-03-31T00:49:39;13.30;70.90
78028;DHT22;67235;45.638;11.714;2023-03-31T00:54:39;13.30;71.00
78028;DHT22;67235;45.638;11.714;2023-03-31T00:57:07;13.40;71.10
78028;DHT22;67235;45.638;11.714;2023-03-31T00:59:38;13.30;71.10
78028;DHT22;67235;45.638;11.714;2023-03-31T01:02:05;13.30;71.20
78028;DHT22;67235;45.638;11.714;2023-03-31T01:04:35;13.40;70.80
78028;DHT22;67235;45.638;11.714;2023-03-31T01:07:19;13.40;70.50
78028;DHT22;67235;45.638;11.714;2023-03-31T01:09:47;13.40;70.60
78028;DHT22;67235;45.638;11.714;2023-03-31T01:12:17;13.20;70.70
78028;DHT22;67235;45.638;11.714;2023-03-31T01:14:43;13.30;71.20
78028;DHT22;67235;45.638;11.714;2023-03-31T01:17:09;13.20;71.40
78028;DHT22;67235;45.638;11.714;2023-03-31T01:19:40;13.20;71.30
78028;DHT22;67235;45.638;11.714;2023-03-31T01:25:25;13.30;71.30
78028;DHT22;67235;45.638;11.714;2023-03-31T01:28:00;13.20;71.30
78028;DHT22;67235;45.638;11.714;2023-03-31T01:30:50;13.20;71.20
78028;DHT22;67235;45.638;11.714;2023-03-31T01:39:24;13.20;71.50
78028;DHT22;67235;45.638;11.714;2023-03-31T01:42:15;13.10;71.30
78028;DHT22;67235;45.638;11.714;2023-03-31T01:44:45;13.20;71.40
78028;DHT22;67235;45.638;11.714;2023-03-31T01:47:25;13.20;71.40
78028;DHT22;67235;45.638;11.714;2023-03-31T01:50:03;13.20;71.60
78028;DHT22;67235;45.638;11.714;2023-03-31T01:52:41;13.30;71.50
78028;DHT22;67235;45.638;11.714;2023-03-31T01:55:15;13.20;71.30
78028;DHT22;67235;45.638;11.714;2023-03-31T02:00:31;13.20;71.40
78028;DHT22;67235;45.638;11.714;2023-03-31T02:03:17;13.20;71.50
78028;DHT22;67235;45.638;11.714;2023-03-31T02:05:53;13.00;71.80
78028;DHT22;67235;45.638;11.714;2023-03-31T02:08:26;13.10;71.40
78028;DHT22;67235;45.638;11.714;2023-03-31T02:10:54;13.10;71.30
78028;DHT22;67235;45.638;11.714;2023-03-31T02:13:22;13.10;71.90
78028;DHT22;67235;45.638;11.714;2023-03-31T02:16:03;13.00;72.30
78028;DHT22;67235;45.638;11.714;2023-03-31T02:18:32;13.00;72.00
78028;DHT22;67235;45.638;11.714;2023-03-31T02:21:04;13.00;71.90
78028;DHT22;67235;45.638;11.714;2023-03-31T02:23:32;13.00;72.00
78028;DHT22;67235;45.638;11.714;2023-03-31T02:26:03;13.00;72.30
78028;DHT22;67235;45.638;11.714;2023-03-31T02:28:31;12.90;72.40
78028;DHT22;67235;45.638;11.714;2023-03-31T02:31:17;13.10;72.00
78028;DHT22;67235;45.638;11.714;2023-03-31T02:33:47;13.10;72.00
78028;DHT22;67235;45.638;11.714;2023-03-31T02:36:13;13.10;72.00
78028;DHT22;67235;45.638;11.714;2023-03-31T02:38:42;13.10;72.50
78028;DHT22;67235;45.638;11.714;2023-03-31T02:41:12;12.90;72.60
78028;DHT22;67235;45.638;11.714;2023-03-31T02:43:38;12.90;72.50
78028;DHT22;67235;45.638;11.714;2023-03-31T02:46:03;13.00;72.10
78028;DHT22;67235;45.638;11.714;2023-03-31T02:48:52;13.00;72.40
78028;DHT22;67235;45.638;11.714;2023-03-31T02:51:39;12.90;72.10
78028;DHT22;67235;45.638;11.714;2023-03-31T02:54:15;12.90;71.80
78028;DHT22;67235;45.638;11.714;2023-03-31T03:00:11;13.00;71.80
78028;DHT22;67235;45.638;11.714;2023-03-31T03:05:27;13.00;72.10
78028;DHT22;67235;45.638;11.714;2023-03-31T03:11:26;13.00;71.50
78028;DHT22;67235;45.638;11.714;2023-03-31T03:14:39;13.00;71.70
78028;DHT22;67235;45.638;11.714;2023-03-31T03:17:06;13.00;71.40
78028;DHT22;67235;45.638;11.714;2023-03-31T03:19:34;13.10;71.30
78028;DHT22;67235;45.638;11.714;2023-03-31T03:22:00;13.20;71.40
78028;DHT22;67235;45.638;11.714;2023-03-31T03:24:26;13.20;71.50
78028;DHT22;67235;45.638;11.714;2023-03-31T03:26:54;13.20;71.60
78028;DHT22;67235;45.638;11.714;2023-03-31T03:29:21;13.30;71.80
78028;DHT22;67235;45.638;11.714;2023-03-31T03:31:46;13.20;71.70
78028;DHT22;67235;45.638;11.714;2023-03-31T03:34:12;13.10;71.90
78028;DHT22;67235;45.638;11.714;2023-03-31T03:36:39;13.20;71.90
78028;DHT22;67235;45.638;11.714;2023-03-31T03:39:06;13.10;71.90
78028;DHT22;67235;45.638;11.714;2023-03-31T03:41:33;13.10;72.10
78028;DHT22;67235;45.638;11.714;2023-03-31T03:43:59;13.20;71.90
78028;DHT22;67235;45.638;11.714;2023-03-31T03:46:26;13.20;72.00
78028;DHT22;67235;45.638;11.714;2023-03-31T03:48:52;13.10;72.30
78028;DHT22;67235;45.638;11.714;2023-03-31T03:51:17;13.00;72.30
78028;DHT22;67235;45.638;11.714;2023-03-31T03:53:43;13.10;72.10
78028;DHT22;67235;45.638;11.714;2023-03-31T03:56:09;13.10;71.90
78028;DHT22;67235;45.638;11.714;2023-03-31T03:58:35;13.10;72.00
78028;DHT22;67235;45.638;11.714;2023-03-31T04:01:01;13.20;71.90
78028;DHT22;67235;45.638;11.714;2023-03-31T04:03:27;13.00;72.00
78028;DHT22;67235;45.638;11.714;2023-03-31T04:05:53;13.00;72.00
78028;DHT22;67235;45.638;11.714;2023-03-31T04:08:19;13.10;71.80
78028;DHT22;67235;45.638;11.714;2023-03-31T04:10:46;13.20;71.80
78028;DHT22;67235;45.638;11.714;2023-03-31T04:13:14;13.00;71.70
78028;DHT22;67235;45.638;11.714;2023-03-31T04:15:40;13.10;72.00
78028;DHT22;67235;45.638;11.714;2023-03-31T04:18:06;13.00;72.30
78028;DHT22;67235;45.638;11.714;2023-03-31T04:20:35;13.10;71.90
78028;DHT22;67235;45.638;11.714;2023-03-31T04:23:03;13.10;72.10
78028;DHT22;67235;45.638;11.714;2023-03-31T04:25:30;13.20;71.70
78028;DHT22;67235;45.638;11.714;2023-03-31T04:27:56;13.20;71.80
78028;DHT22;67235;45.638;11.714;2023-03-31T04:30:26;13.30;71.90
78028;DHT22;67235;45.638;11.714;2023-03-31T04:32:58;13.20;71.70
78028;DHT22;67235;45.638;11.714;2023-03-31T04:35:25;13.10;72.00
78028;DHT22;67235;45.638;11.714;2023-03-31T04:37:52;13.30;71.70
78028;DHT22;67235;45.638;11.714;2023-03-31T04:40:25;13.20;71.50
78028;DHT22;67235;45.638;11.714;2023-03-31T04:42:51;13.20;71.70
78028;DHT22;67235;45.638;11.714;2023-03-31T04:45:17;13.20;71.80
78028;DHT22;67235;45.638;11.714;2023-03-31T04:47:43;13.20;72.00
78028;DHT22;67235;45.638;11.714;2023-03-31T04:50:10;13.10;72.00
78028;DHT22;67235;45.638;11.714;2023-03-31T04:52:36;13.20;71.90
78028;DHT22;67235;45.638;11.714;2023-03-31T04:55:03;13.20;71.70
78028;DHT22;67235;45.638;11.714;2023-03-31T04:57:29;13.10;71.80
78028;DHT22;67235;45.638;11.714;2023-03-31T04:59:55;13.20;72.00
78028;DHT22;67235;45.638;11.714;2023-03-31T05:02:21;13.20;71.80
78028;DHT22;67235;45.638;11.714;2023-03-31T05:04:50;13.10;72.00
78028;DHT22;67235;45.638;11.714;2023-03-31T05:07:17;13.10;71.90
78028;DHT22;67235;45.638;11.714;2023-03-31T05:09:43;13.00;72.30
78028;DHT22;67235;45.638;11.714;2023-03-31T05:12:10;12.80;72.80
78028;DHT22;67235;45.638;11.714;2023-03-31T05:14:36;12.90;72.70
78028;DHT22;67235;45.638;11.714;2023-03-31T05:17:01;13.00;72.50
78028;DHT22;67235;45.638;11.714;2023-03-31T05:19:27;12.90;72.50
78028;DHT22;67235;45.638;11.714;2023-03-31T05:21:53;13.00;72.60
78028;DHT22;67235;45.638;11.714;2023-03-31T05:24:19;12.90;72.80
78028;DHT22;67235;45.638;11.714;2023-03-31T05:26:45;12.90;72.70
78028;DHT22;67235;45.638;11.714;2023-03-31T05:29:17;12.90;73.10
78028;DHT22;67235;45.638;11.714;2023-03-31T05:31:43;13.00;72.70
78028;DHT22;67235;45.638;11.714;2023-03-31T05:34:10;13.00;72.70
78028;DHT22;67235;45.638;11.714;2023-03-31T05:36:37;12.90;72.80
78028;DHT22;67235;45.638;11.714;2023-03-31T05:39:06;13.00;72.70
78028;DHT22;67235;45.638;11.714;2023-03-31T05:41:33;12.90;73.10
78028;DHT22;67235;45.638;11.714;2023-03-31T05:44:00;13.00;72.60
78028;DHT22;67235;45.638;11.714;2023-03-31T05:46:49;13.10;72.70
78028;DHT22;67235;45.638;11.714;2023-03-31T05:49:14;13.10;72.80
78028;DHT22;67235;45.638;11.714;2023-03-31T05:51:41;13.10;72.80
78028;DHT22;67235;45.638;11.714;2023-03-31T05:54:09;13.10;72.80
78028;DHT22;67235;45.638;11.714;2023-03-31T05:56:38;13.20;72.60
78028;DHT22;67235;45.638;11.714;2023-03-31T05:59:04;13.20;72.40
78028;DHT22;67235;45.638;11.714;2023-03-31T06:01:30;13.20;72.40
78028;DHT22;67235;45.638;11.714;2023-03-31T06:03:58;13.20;72.50
78028;DHT22;67235;45.638;11.714;2023-03-31T06:06:24;13.20;72.60
78028;DHT22;67235;45.638;11.714;2023-03-31T06:08:50;13.30;72.70
78028;DHT22;67235;45.638;11.714;2023-03-31T06:11:19;13.30;72.30
78028;DHT22;67235;45.638;11.714;2023-03-31T06:13:45;13.30;72.70
78028;DHT22;67235;45.638;11.714;2023-03-31T06:16:16;13.30;72.50
78028;DHT22;67235;45.638;11.714;2023-03-31T06:18:47;13.20;72.40
78028;DHT22;67235;45.638;11.714;2023-03-31T06:21:15;13.30;72.40
78028;DHT22;67235;45.638;11.714;2023-03-31T06:23:41;13.20;72.70
78028;DHT22;67235;45.638;11.714;2023-03-31T06:26:18;13.20;72.40
78028;DHT22;67235;45.638;11.714;2023-03-31T06:28:44;13.30;72.20
78028;DHT22;67235;45.638;11.714;2023-03-31T06:31:13;13.40;72.40
78028;DHT22;67235;45.638;11.714;2023-03-31T06:33:40;13.40;72.20
78028;DHT22;67235;45.638;11.714;2023-03-31T06:36:07;13.40;72.10
78028;DHT22;67235;45.638;11.714;2023-03-31T06:38:35;13.20;72.00
78028;DHT22;67235;45.638;11.714;2023-03-31T06:41:03;13.40;72.20
78028;DHT22;67235;45.638;11.714;2023-03-31T06:43:30;13.40;72.20
78028;DHT22;67235;45.638;11.714;2023-03-31T06:45:56;13.40;71.80
78028;DHT22;67235;45.638;11.714;2023-03-31T06:48:22;13.50;72.10
78028;DHT22;67235;45.638;11.714;2023-03-31T06:50:52;13.60;71.80
78028;DHT22;67235;45.638;11.714;2023-03-31T06:53:18;13.60;71.80
78028;DHT22;67235;45.638;11.714;2023-03-31T06:55:44;13.70;71.20
78028;DHT22;67235;45.638;11.714;2023-03-31T06:58:10;13.70;71.10
78028;DHT22;67235;45.638;11.714;2023-03-31T07:00:39;13.70;71.30
78028;DHT22;67235;45.638;11.714;2023-03-31T07:03:05;13.60;70.80
78028;DHT22;67235;45.638;11.714;2023-03-31T07:05:33;13.60;71.50
78028;DHT22;67235;45.638;11.714;2023-03-31T07:08:00;13.60;72.00
78028;DHT22;67235;45.638;11.714;2023-03-31T07:10:28;13.60;71.50
78028;DHT22;67235;45.638;11.714;2023-03-31T07:12:54;13.60;71.30
78028;DHT22;67235;45.638;11.714;2023-03-31T07:15:20;13.70;71.70
78028;DHT22;67235;45.638;11.714;2023-03-31T07:17:47;13.70;71.60
78028;DHT22;67235;45.638;11.714;2023-03-31T07:20:16;13.70;71.00
78028;DHT22;67235;45.638;11.714;2023-03-31T07:22:47;13.80;71.30
78028;DHT22;67235;45.638;11.714;2023-03-31T07:25:15;13.80;71.40
78028;DHT22;67235;45.638;11.714;2023-03-31T07:27:42;13.90;70.90
78028;DHT22;67235;45.638;11.714;2023-03-31T07:30:11;13.90;70.50
78028;DHT22;67235;45.638;11.714;2023-03-31T07:32:37;13.90;70.70
78028;DHT22;67235;45.638;11.714;2023-03-31T07:35:06;14.00;70.50
78028;DHT22;67235;45.638;11.714;2023-03-31T07:37:40;14.10;70.50
78028;DHT22;67235;45.638;11.714;2023-03-31T07:40:09;14.20;70.40
78028;DHT22;67235;45.638;11.714;2023-03-31T07:42:36;14.30;70.60
78028;DHT22;67235;45.638;11.714;2023-03-31T07:45:02;14.20;70.30
78028;DHT22;67235;45.638;11.714;2023-03-31T07:47:30;14.30;70.10
78028;DHT22;67235;45.638;11.714;2023-03-31T07:49:57;14.30;70.70
78028;DHT22;67235;45.638;11.714;2023-03-31T07:52:23;14.20;70.90
78028;DHT22;67235;45.638;11.714;2023-03-31T07:54:49;14.20;71.20
78028;DHT22;67235;45.638;11.714;2023-03-31T07:57:15;14.10;71.40
78028;DHT22;67235;45.638;11.714;2023-03-31T07:59:46;14.00;71.50
78028;DHT22;67235;45.638;11.714;2023-03-31T08:02:14;14.20;71.30
78028;DHT22;67235;45.638;11.714;2023-03-31T08:04:41;14.30;70.80
78028;DHT22;67235;45.638;11.714;2023-03-31T08:07:12;14.50;70.50
78028;DHT22;67235;45.638;11.714;2023-03-31T08:09:39;14.50;70.50
78028;DHT22;67235;45.638;11.714;2023-03-31T08:12:07;14.60;70.30
78028;DHT22;67235;45.638;11.714;2023-03-31T08:14:33;14.50;70.30
78028;DHT22;67235;45.638;11.714;2023-03-31T08:16:59;14.70;69.90
78028;DHT22;67235;45.638;11.714;2023-03-31T08:19:27;14.80;69.80
78028;DHT22;67235;45.638;11.714;2023-03-31T08:21:53;15.00;69.60
78028;DHT22;67235;45.638;11.714;2023-03-31T08:24:19;14.90;69.90
78028;DHT22;67235;45.638;11.714;2023-03-31T08:26:45;14.90;69.70
78028;DHT22;67235;45.638;11.714;2023-03-31T08:29:11;14.90;69.60
78028;DHT22;67235;45.638;11.714;2023-03-31T08:31:38;14.90;69.60
78028;DHT22;67235;45.638;11.714;2023-03-31T08:34:04;14.90;69.60
78028;DHT22;67235;45.638;11.714;2023-03-31T08:36:31;14.90;69.60
78028;DHT22;67235;45.638;11.714;2023-03-31T08:38:58;15.00;69.50
78028;DHT22;67235;45.638;11.714;2023-03-31T08:43:54;15.00;69.60
78028;DHT22;67235;45.638;11.714;2023-03-31T08:46:22;15.10;69.70
78028;DHT22;67235;45.638;11.714;2023-03-31T08:48:53;15.20;69.60
78028;DHT22;67235;45.638;11.714;2023-03-31T08:51:36;15.10;69.20
78028;DHT22;67235;45.638;11.714;2023-03-31T08:54:16;15.10;69.30
78028;DHT22;67235;45.638;11.714;2023-03-31T08:56:46;15.20;69.40
78028;DHT22;67235;45.638;11.714;2023-03-31T08:59:28;15.10;69.50
78028;DHT22;67235;45.638;11.714;2023-03-31T09:02:03;15.30;69.80
78028;DHT22;67235;45.638;11.714;2023-03-31T09:05:02;15.40;69.40
78028;DHT22;67235;45.638;11.714;2023-03-31T09:13:17;15.70;67.80
78028;DHT22;67235;45.638;11.714;2023-03-31T09:16:14;15.80;67.40
78028;DHT22;67235;45.638;11.714;2023-03-31T09:18:41;15.70;66.70
78028;DHT22;67235;45.638;11.714;2023-03-31T09:21:40;15.70;67.30
78028;DHT22;67235;45.638;11.714;2023-03-31T09:26:40;15.80;67.50
78028;DHT22;67235;45.638;11.714;2023-03-31T09:31:51;16.00;66.60
78028;DHT22;67235;45.638;11.714;2023-03-31T09:34:24;15.90;67.10
78028;DHT22;67235;45.638;11.714;2023-03-31T09:36:51;15.70;67.60
78028;DHT22;67235;45.638;11.714;2023-03-31T09:39:17;15.60;67.10
78028;DHT22;67235;45.638;11.714;2023-03-31T09:41:46;15.50;67.60
78028;DHT22;67235;45.638;11.714;2023-03-31T09:44:41;15.50;67.70
78028;DHT22;67235;45.638;11.714;2023-03-31T09:47:32;15.60;67.80
78028;DHT22;67235;45.638;11.714;2023-03-31T09:50:04;15.40;69.20
78028;DHT22;67235;45.638;11.714;2023-03-31T09:52:33;15.30;68.80
78028;DHT22;67235;45.638;11.714;2023-03-31T09:55:01;15.40;69.20
78028;DHT22;67235;45.638;11.714;2023-03-31T09:57:38;15.40;69.70
78028;DHT22;67235;45.638;11.714;2023-03-31T10:02:49;15.20;69.10
78028;DHT22;67235;45.638;11.714;2023-03-31T10:05:31;15.30;69.00
78028;DHT22;67235;45.638;11.714;2023-03-31T10:08:17;15.50;68.10
78028;DHT22;67235;45.638;11.714;2023-03-31T10:10:57;15.40;69.30
78028;DHT22;67235;45.638;11.714;2023-03-31T10:13:43;15.50;68.00
78028;DHT22;67235;45.638;11.714;2023-03-31T10:16:19;15.80;67.70
78028;DHT22;67235;45.638;11.714;2023-03-31T10:18:46;15.60;67.60
78028;DHT22;67235;45.638;11.714;2023-03-31T10:21:26;15.70;67.90
78028;DHT22;67235;45.638;11.714;2023-03-31T10:23:53;15.80;67.70
78028;DHT22;67235;45.638;11.714;2023-03-31T10:26:24;15.50;67.60
78028;DHT22;67235;45.638;11.714;2023-03-31T10:28:51;15.60;67.70
78028;DHT22;67235;45.638;11.714;2023-03-31T10:31:23;15.70;67.80
78028;DHT22;67235;45.638;11.714;2023-03-31T10:33:51;15.60;67.30
78028;DHT22;67235;45.638;11.714;2023-03-31T10:36:20;15.80;67.50
78028;DHT22;67235;45.638;11.714;2023-03-31T10:38:47;15.60;67.60
78028;DHT22;67235;45.638;11.714;2023-03-31T10:41:24;15.70;67.20
78028;DHT22;67235;45.638;11.714;2023-03-31T10:43:56;15.90;67.20
78028;DHT22;67235;45.638;11.714;2023-03-31T10:46:46;16.20;67.10
78028;DHT22;67235;45.638;11.714;2023-03-31T10:49:25;16.10;66.90
78028;DHT22;67235;45.638;11.714;2023-03-31T10:51:55;16.00;67.20
78028;DHT22;67235;45.638;11.714;2023-03-31T10:54:23;16.20;67.20
78028;DHT22;67235;45.638;11.714;2023-03-31T10:57:00;16.20;67.10
78028;DHT22;67235;45.638;11.714;2023-03-31T11:08:10;16.70;66.80
78028;DHT22;67235;45.638;11.714;2023-03-31T11:13:37;16.80;66.20
78028;DHT22;67235;45.638;11.714;2023-03-31T11:24:41;16.90;65.50
78028;DHT22;67235;45.638;11.714;2023-03-31T11:30:15;16.80;66.30
78028;DHT22;67235;45.638;11.714;2023-03-31T11:36:08;16.90;66.10
78028;DHT22;67235;45.638;11.714;2023-03-31T11:38:58;17.10;65.90
78028;DHT22;67235;45.638;11.714;2023-03-31T11:41:36;17.50;65.30
78028;DHT22;67235;45.638;11.714;2023-03-31T11:44:06;17.50;65.30
78028;DHT22;67235;45.638;11.714;2023-03-31T11:46:47;17.70;65.10
78028;DHT22;67235;45.638;11.714;2023-03-31T11:49:38;17.70;65.00
78028;DHT22;67235;45.638;11.714;2023-03-31T11:52:17;17.90;65.40
78028;DHT22;67235;45.638;11.714;2023-03-31T11:57:21;18.50;59.20
78028;DHT22;67235;45.638;11.714;2023-03-31T12:00:22;18.80;58.20
78028;DHT22;67235;45.638;11.714;2023-03-31T12:03:13;19.40;55.70
78028;DHT22;67235;45.638;11.714;2023-03-31T12:06:00;19.60;53.70
78028;DHT22;67235;45.638;11.714;2023-03-31T12:09:00;19.80;53.60
78028;DHT22;67235;45.638;11.714;2023-03-31T12:11:39;19.80;52.70
78028;DHT22;67235;45.638;11.714;2023-03-31T12:16:53;20.10;53.90
78028;DHT22;67235;45.638;11.714;2023-03-31T12:22:22;19.70;53.00
78028;DHT22;67235;45.638;11.714;2023-03-31T12:24:54;19.80;53.80
78028;DHT22;67235;45.638;11.714;2023-03-31T12:32:30;19.80;53.90
78028;DHT22;67235;45.638;11.714;2023-03-31T12:35:13;19.30;53.80
78028;DHT22;67235;45.638;11.714;2023-03-31T12:40:29;19.10;55.00
78028;DHT22;67235;45.638;11.714;2023-03-31T12:43:22;19.30;54.70
78028;DHT22;67235;45.638;11.714;2023-03-31T13:11:41;18.50;56.00
78028;DHT22;67235;45.638;11.714;2023-03-31T13:14:30;18.30;56.50
78028;DHT22;67235;45.638;11.714;2023-03-31T13:26:05;18.60;57.70
78028;DHT22;67235;45.638;11.714;2023-03-31T13:52:01;17.20;66.00
78028;DHT22;67235;45.638;11.714;2023-03-31T13:58:48;17.20;65.30
78028;DHT22;67235;45.638;11.714;2023-03-31T14:06:58;17.40;65.10
78028;DHT22;67235;45.638;11.714;2023-03-31T14:09:39;17.40;65.30
78028;DHT22;67235;45.638;11.714;2023-03-31T14:12:20;17.20;65.80
78028;DHT22;67235;45.638;11.714;2023-03-31T14:14:46;17.10;65.50
78028;DHT22;67235;45.638;11.714;2023-03-31T14:17:13;16.90;65.50
78028;DHT22;67235;45.638;11.714;2023-03-31T14:28:03;16.40;66.10
78028;DHT22;67235;45.638;11.714;2023-03-31T14:34:03;16.50;66.10
78028;DHT22;67235;45.638;11.714;2023-03-31T14:36:33;16.50;66.30
78028;DHT22;67235;45.638;11.714;2023-03-31T14:39:05;16.30;66.50
78028;DHT22;67235;45.638;11.714;2023-03-31T14:41:32;16.30;66.30
78028;DHT22;67235;45.638;11.714;2023-03-31T14:44:00;16.20;66.70
78028;DHT22;67235;45.638;11.714;2023-03-31T14:46:30;16.20;66.60
78028;DHT22;67235;45.638;11.714;2023-03-31T14:49:11;16.20;66.80
78028;DHT22;67235;45.638;11.714;2023-03-31T14:51:43;16.20;66.70
78028;DHT22;67235;45.638;11.714;2023-03-31T14:54:18;16.20;66.40
78028;DHT22;67235;45.638;11.714;2023-03-31T14:56:48;16.20;67.00
78028;DHT22;67235;45.638;11.714;2023-03-31T14:59:21;16.10;67.00
78028;DHT22;67235;45.638;11.714;2023-03-31T15:01:49;15.90;67.30
78028;DHT22;67235;45.638;11.714;2023-03-31T15:04:21;15.90;67.10
78028;DHT22;67235;45.638;11.714;2023-03-31T15:06:49;15.90;67.10
78028;DHT22;67235;45.638;11.714;2023-03-31T15:09:29;16.00;67.10
78028;DHT22;67235;45.638;11.714;2023-03-31T15:12:00;16.00;67.60
78028;DHT22;67235;45.638;11.714;2023-03-31T15:14:50;16.00;67.10
78028;DHT22;67235;45.638;11.714;2023-03-31T15:17:27;16.00;67.30
78028;DHT22;67235;45.638;11.714;2023-03-31T15:19:59;16.00;67.20
78028;DHT22;67235;45.638;11.714;2023-03-31T15:22:29;16.00;67.00
78028;DHT22;67235;45.638;11.714;2023-03-31T15:24:55;16.10;66.70
78028;DHT22;67235;45.638;11.714;2023-03-31T15:27:34;16.00;67.10
78028;DHT22;67235;45.638;11.714;2023-03-31T15:30:16;16.00;67.40
78028;DHT22;67235;45.638;11.714;2023-03-31T15:32:43;16.00;67.10
78028;DHT22;67235;45.638;11.714;2023-03-31T15:35:27;15.90;67.60
78028;DHT22;67235;45.638;11.714;2023-03-31T15:37:55;15.70;67.90
78028;DHT22;67235;45.638;11.714;2023-03-31T15:40:28;15.70;68.10
78028;DHT22;67235;45.638;11.714;2023-03-31T15:43:03;15.80;68.30
78028;DHT22;67235;45.638;11.714;2023-03-31T15:48:03;15.80;68.30
78028;DHT22;67235;45.638;11.714;2023-03-31T15:50:31;15.70;68.40
78028;DHT22;67235;45.638;11.714;2023-03-31T15:52:58;15.70;68.70
78028;DHT22;67235;45.638;11.714;2023-03-31T15:55:28;15.60;68.70
78028;DHT22;67235;45.638;11.714;2023-03-31T15:57:59;15.50;68.70
78028;DHT22;67235;45.638;11.714;2023-03-31T16:00:50;15.50;69.10
78028;DHT22;67235;45.638;11.714;2023-03-31T16:03:32;15.50;68.90
78028;DHT22;67235;45.638;11.714;2023-03-31T16:08:48;15.40;69.20
78028;DHT22;67235;45.638;11.714;2023-03-31T16:11:34;15.30;70.60
78028;DHT22;67235;45.638;11.714;2023-03-31T16:14:06;15.30;70.50
78028;DHT22;67235;45.638;11.714;2023-03-31T16:16:33;15.20;70.40
78028;DHT22;67235;45.638;11.714;2023-03-31T16:19:03;15.20;70.70
78028;DHT22;67235;45.638;11.714;2023-03-31T16:21:39;15.10;70.30
78028;DHT22;67235;45.638;11.714;2023-03-31T16:24:05;15.10;70.50
78028;DHT22;67235;45.638;11.714;2023-03-31T16:26:31;15.20;70.30
78028;DHT22;67235;45.638;11.714;2023-03-31T16:28:59;15.10;70.50
78028;DHT22;67235;45.638;11.714;2023-03-31T16:31:40;15.20;70.40
78028;DHT22;67235;45.638;11.714;2023-03-31T16:34:08;15.00;70.60
78028;DHT22;67235;45.638;11.714;2023-03-31T16:36:34;15.10;70.50
78028;DHT22;67235;45.638;11.714;2023-03-31T16:39:00;15.00;70.50
78028;DHT22;67235;45.638;11.714;2023-03-31T16:41:31;15.00;70.60
78028;DHT22;67235;45.638;11.714;2023-03-31T16:43:57;14.90;70.70
78028;DHT22;67235;45.638;11.714;2023-03-31T16:46:23;15.00;70.90
78028;DHT22;67235;45.638;11.714;2023-03-31T16:48:50;14.90;71.00
78028;DHT22;67235;45.638;11.714;2023-03-31T16:51:16;14.80;71.20
78028;DHT22;67235;45.638;11.714;2023-03-31T16:53:43;14.80;71.30
78028;DHT22;67235;45.638;11.714;2023-03-31T16:56:09;14.80;71.30
78028;DHT22;67235;45.638;11.714;2023-03-31T16:58:38;14.80;71.30
78028;DHT22;67235;45.638;11.714;2023-03-31T17:01:06;14.80;71.40
78028;DHT22;67235;45.638;11.714;2023-03-31T17:03:32;14.70;71.40
78028;DHT22;67235;45.638;11.714;2023-03-31T17:06:07;14.50;71.90
78028;DHT22;67235;45.638;11.714;2023-03-31T17:08:34;14.50;72.20
78028;DHT22;67235;45.638;11.714;2023-03-31T17:11:01;14.40;71.90
78028;DHT22;67235;45.638;11.714;2023-03-31T17:13:28;14.50;72.00
78028;DHT22;67235;45.638;11.714;2023-03-31T17:15:54;14.60;71.90
78028;DHT22;67235;45.638;11.714;2023-03-31T17:18:20;14.60;71.80
78028;DHT22;67235;45.638;11.714;2023-03-31T17:20:46;14.70;71.80
78028;DHT22;67235;45.638;11.714;2023-03-31T17:23:12;14.50;71.80
78028;DHT22;67235;45.638;11.714;2023-03-31T17:25:48;14.60;72.00
78028;DHT22;67235;45.638;11.714;2023-03-31T17:28:15;14.40;72.20
78028;DHT22;67235;45.638;11.714;2023-03-31T17:30:41;14.40;71.90
78028;DHT22;67235;45.638;11.714;2023-03-31T17:33:10;14.30;72.40
78028;DHT22;67235;45.638;11.714;2023-03-31T17:35:36;14.20;72.60
78028;DHT22;67235;45.638;11.714;2023-03-31T17:38:04;14.20;72.50
78028;DHT22;67235;45.638;11.714;2023-03-31T17:40:30;14.10;72.70
78028;DHT22;67235;45.638;11.714;2023-03-31T17:42:58;14.20;72.50
78028;DHT22;67235;45.638;11.714;2023-03-31T17:45:24;14.30;72.30
78028;DHT22;67235;45.638;11.714;2023-03-31T17:47:51;14.10;72.60
78028;DHT22;67235;45.638;11.714;2023-03-31T17:50:17;14.00;72.80
78028;DHT22;67235;45.638;11.714;2023-03-31T17:52:44;14.10;72.90
78028;DHT22;67235;45.638;11.714;2023-03-31T17:55:10;14.00;72.60
78028;DHT22;67235;45.638;11.714;2023-03-31T17:57:36;14.10;72.70
78028;DHT22;67235;45.638;11.714;2023-03-31T18:00:03;14.10;72.80
78028;DHT22;67235;45.638;11.714;2023-03-31T18:02:30;13.90;73.00
78028;DHT22;67235;45.638;11.714;2023-03-31T18:04:56;13.90;73.00
78028;DHT22;67235;45.638;11.714;2023-03-31T18:07:22;13.70;73.10
78028;DHT22;67235;45.638;11.714;2023-03-31T18:09:49;13.70;73.50
78028;DHT22;67235;45.638;11.714;2023-03-31T18:12:15;13.50;73.40
78028;DHT22;67235;45.638;11.714;2023-03-31T18:14:41;13.60;73.70
78028;DHT22;67235;45.638;11.714;2023-03-31T18:17:08;13.60;73.40
78028;DHT22;67235;45.638;11.714;2023-03-31T18:19:41;13.60;73.70
78028;DHT22;67235;45.638;11.714;2023-03-31T18:22:08;13.50;73.80
78028;DHT22;67235;45.638;11.714;2023-03-31T18:24:35;13.50;73.80
78028;DHT22;67235;45.638;11.714;2023-03-31T18:27:05;13.40;74.00